INFORMACIÓN METAR y TAF
METAR FOR BIKF
ADDS - METARS form results

(2059 UTC 02 June 2020)
Data provider http://aviationweather.gov/metar/data/
 
METAR text: BIKF 022030Z 26012KT 9999 -SHRA BKN011 OVC022 08/07 Q1028
Conditions at: BIKF (KEFLAVIK (CIV/MI, IS) observed 2030 UTC 02 June 2020
Temperature: 8.0°C (46°F)
Dewpoint: 7.0°C (45°F) [RH = 93%]
Pressure (altimeter): 30.35 inches Hg (1028.0 mb)
Winds: from the W (260 degrees) at 14 MPH (12 knots; 6.2 m/s)
Visibility: 6 or more miles (10+ km)
Ceiling: 1100 feet AGL
Clouds: broken clouds at 1100 feet AGL
overcast cloud deck at 2200 feet AGL
Weather: -SHRA  (light rain showers)

METAR text: BIKF 022000Z 25012KT 9999 BKN013 OVC022 08/06 Q1028
Conditions at: BIKF (KEFLAVIK (CIV/MI, IS) observed 2000 UTC 02 June 2020
Temperature: 8.0°C (46°F)
Dewpoint: 6.0°C (43°F) [RH = 87%]
Pressure (altimeter): 30.35 inches Hg (1028.0 mb)
Winds: from the WSW (250 degrees) at 14 MPH (12 knots; 6.2 m/s)
Visibility: 6 or more miles (10+ km)
Ceiling: 1300 feet AGL
Clouds: broken clouds at 1300 feet AGL
overcast cloud deck at 2200 feet AGL
Weather: no significant weather observed at this time

Forecast for: BIKF (KEFLAVIK (CIV/MI, IS)
Text: TAF BIKF 021952Z 0221/0321 27010KT 9999 BKN015 OVC025 TX09/0315Z TN07/0304Z
Forecast period: 2100 UTC 02 June 2020 to 2100 UTC 03 June 2020
Forecast type: FROM: standard forecast or significant change
Winds: from the W (270 degrees) at 12 MPH (10 knots; 5.1 m/s)
Visibility: 6 or more miles 10+ km)
Ceiling: 1500 feet AGL
Clouds: broken clouds at 1500 feet AGL
overcast cloud deck at 2500 feet AGL
Weather: no significant weather forecast for this period
Text: TEMPO 0221/0315 2000 DZ BR BKN003
Forecast period: 2100 UTC 02 June 2020 to 1500 UTC 03 June 2020
Forecast type: TEMPORARY: The following changes expected for less than half the time period
Visibility: 1.24 miles (2.00 km)
Ceiling: 300 feet AGL
Clouds: broken clouds at 300 feet AGL
Weather: DZ BR  (moderate drizzle, mist)

MAPA DE AEROPUERTO

INFORMACIÓN DE PISTA
Pista 02 Longitud 10019 ft Ancho 197 ft
Elevación 137 ft Umbral desplazado 19 ft Rumbo de pista 360
Pista 20 Longitud 10019 ft Ancho 197 ft
Elevación 163 ft Umbral desplazado 19 ft Rumbo de pista 180
Pista 11 Longitud 10056 ft Ancho 197 ft
Elevación 111 ft Umbral desplazado 43 ft Rumbo de pista 90
Pista 29 Longitud 10056 ft Ancho 197 ft
Elevación 171 ft Umbral desplazado 43 ft Rumbo de pista 270

FRECUANCIAS DEL AEROPUERTO
Tipo A/G Nombre AIR GND Frecuencia 131.9 MHZ
Tipo APP Nombre APP Frecuencia 119.3 MHZ
Tipo ATIS Nombre ATIS Frecuencia 128.3 MHZ
Tipo DEP Nombre DEP Frecuencia 119.3 MHZ
Tipo GND Nombre GND Frecuencia 121.9 MHZ
Tipo OPS Nombre BASE OPS Frecuencia 129 MHZ
Tipo PMSV Nombre PMSV METR Frecuencia 125 MHZ
Tipo TWR Nombre TWR Frecuencia 118.3 MHZ

RADIO AYUDAS DEL AEROPUERTO
Tipo VORTAC Nombre Keflavik Frecuencia 112000 KHZ
Tipo NDB Nombre Keflavik Frecuencia 392 KHZ
Tipo NDB Nombre Oscar Kilo Frecuencia 364 KHZ